Terminal Aerodrome Forecast
Issued by NWS Mt. Holly, NJ

Home | Current Version | Previous Version | Text Only | Print | Product List | Glossary On
Versions: 1 2 3 4 5 6 7 8 9 10 11 12 13 14 15 16 17 18 19 20 21 22 23 24
000
FTUS41 KPHI 040538
TAFPHL
TAF
KPHL 040538Z 0406/0512 VRB03KT 6SM HZ BKN250
     FM040900 04006KT P6SM SCT080
     FM041400 07010KT P6SM BKN050
      TEMPO 0416/0420 -SHRA
     FM050300 05008KT P6SM SCT050 BKN100=

USA.gov is the U.S. government's official web portal to all federal, state and local government web resources and services.